Portada
METAR-TAF:

METAR-TAF

Aeropuertos :

Aeródromo Henderson

Midway, Estados Unidos

latitud: 28-13N, longitud: 177-22W, altitud: 4 m

METAR: falta

Hora: 23:51 (09:51 UTC)

Pronóstico

El informe se hizo hace 4 horas y 31 minutos, a las 05:20 UTC
Pronóstico válido del 04 a las 06 UTC al 05 a las 06 UTC
Viento 15 kt del norte
Visibilidad: 10 km
Cielo nuboso a una altura de 1800 ft
Cielo cubierto a una altura de 4000 ft
chaparrones en las proximidades
A partir de las 04 a las 2200 UTC
Viento 10 kt del norte
Visibilidad: 10 km
Nubes dispersas a una altura de 1800 ft
Cielo nuboso a una altura de 4000 ft
chaparrones en las proximidades

TAF: PMDY 040520Z 0406/0506 35015KT P6SM VCSH BKN018 OVC040 FM042200 35010KT P6SM VCSH SCT018 BKN040 AMD NOT SKED

Observaciones y pronósticos meteorológicos de más de 4000 aeropuertos (mensajes METAR y TAF).

Los puntos amarillos y rojos representan las estaciones disponibles.

Ponga el ratón en el punto deseado para ver el nombre de la estación.

Haga clic para ver las observaciones y los pronósticos meteorológicos.

Para cambiar el mapa : haga clic en los botones verdes con una cruz de color negro para hacer un zoom, en el botón verde con un guión para alejar o en las flechas verdes para mapas adyacentes.


METAR-TAF: